首页
METAR-TAF:

METAR-TAF

机场 :

布里斯班機場

布里斯班, 澳大利亚

纬度: 27-23S, 经度: 153-06E, 海拔: 4米

当前天气观测

该预报发布于16分钟前的04:00 UTC
风速7节,风向
温度 20°C
湿度 49%
气压 1022 hPa
能见度10公里或以上
少量云层高于3500英尺

METAR: YBBN 230400Z 09007KT 9999 FEW035 20/09 Q1022

时间: 14:16 (04:16 UTC)

预报

该预报发布于5小时和2分钟前的23:14 UTC
预报有效从23日的 00点(UTC)到 24日的 06点(UTC)
风速8节,风向南转西南
能见度10公里或以上
少量云层高于3500英尺
从 23日的 0200点(UTC)
风速8节,风向东南
能见度10公里或以上
少量云层高于4500英尺
从 23日的 0400点(UTC)
风速8节,风向东转东北
能见度10公里或以上
1500米以下无云,无积雨云
从 23日的 0900点(UTC)
风速6节,风向南转西南
能见度10公里或以上
1500米以下无云,无积雨云
从 24日的 0200点(UTC)
风速8节,风向东转东北
能见度10公里或以上
1500米以下无云,无积雨云

TAF: YBBN 222314Z 2300/2406 20008KT 9999 FEW035 FM230200 14008KT 9999 FEW045 FM230400 07008KT CAVOK FM230900 20006KT CAVOK FM240200 07008KT CAVOK

超过4000个机场的气象观测和天气预报(METAR&TAF报告)。

可查询的气象台以黄色和红色小点在地图上表示。

将鼠标移到小点上方,可查看气象台名称。

然后点击查看天气观测和预报。

如需切换地图:点击带黑十字的绿色按钮放大地图;点击带横线的绿色按钮缩小地图;或者点击绿色箭头查看邻近地区的地图。


METAR-TAF: